sensor_id;sensor_type;location;lat;lon;timestamp;P1;durP1;ratioP1;P2;durP2;ratioP2
15116;SDS011;7659;51.038;13.786;2023-06-05T00:00:12;4.10;;;2.20;;
15116;SDS011;7659;51.038;13.786;2023-06-05T00:02:37;6.07;;;2.40;;
15116;SDS011;7659;51.038;13.786;2023-06-05T00:05:03;3.05;;;2.20;;
15116;SDS011;7659;51.038;13.786;2023-06-05T00:07:34;4.65;;;2.40;;
15116;SDS011;7659;51.038;13.786;2023-06-05T00:09:59;6.70;;;2.30;;
15116;SDS011;7659;51.038;13.786;2023-06-05T00:12:25;4.18;;;2.38;;
15116;SDS011;7659;51.038;13.786;2023-06-05T00:14:50;3.63;;;2.08;;
15116;SDS011;7659;51.038;13.786;2023-06-05T00:17:16;4.38;;;2.50;;
15116;SDS011;7659;51.038;13.786;2023-06-05T00:19:41;5.45;;;2.40;;
15116;SDS011;7659;51.038;13.786;2023-06-05T00:22:07;4.25;;;2.42;;
15116;SDS011;7659;51.038;13.786;2023-06-05T00:24:33;3.97;;;2.35;;
15116;SDS011;7659;51.038;13.786;2023-06-05T00:26:58;5.72;;;2.33;;
15116;SDS011;7659;51.038;13.786;2023-06-05T00:29:24;4.50;;;2.35;;
15116;SDS011;7659;51.038;13.786;2023-06-05T00:31:49;5.00;;;2.30;;
15116;SDS011;7659;51.038;13.786;2023-06-05T00:34:15;4.53;;;2.20;;
15116;SDS011;7659;51.038;13.786;2023-06-05T00:36:40;3.05;;;2.08;;
15116;SDS011;7659;51.038;13.786;2023-06-05T00:39:06;4.35;;;2.22;;
15116;SDS011;7659;51.038;13.786;2023-06-05T00:41:31;2.70;;;1.80;;
15116;SDS011;7659;51.038;13.786;2023-06-05T00:43:57;3.05;;;1.90;;
15116;SDS011;7659;51.038;13.786;2023-06-05T00:46:22;4.57;;;2.10;;
15116;SDS011;7659;51.038;13.786;2023-06-05T00:48:48;3.42;;;1.95;;
15116;SDS011;7659;51.038;13.786;2023-06-05T00:51:15;5.13;;;2.20;;
15116;SDS011;7659;51.038;13.786;2023-06-05T00:53:41;5.13;;;2.40;;
15116;SDS011;7659;51.038;13.786;2023-06-05T00:56:07;5.00;;;2.15;;
15116;SDS011;7659;51.038;13.786;2023-06-05T00:58:32;3.78;;;2.28;;
15116;SDS011;7659;51.038;13.786;2023-06-05T01:00:58;6.28;;;2.35;;
15116;SDS011;7659;51.038;13.786;2023-06-05T01:03:26;3.55;;;2.25;;
15116;SDS011;7659;51.038;13.786;2023-06-05T01:05:56;6.35;;;2.10;;
15116;SDS011;7659;51.038;13.786;2023-06-05T01:08:37;7.47;;;2.15;;
15116;SDS011;7659;51.038;13.786;2023-06-05T01:13:42;3.97;;;2.20;;
15116;SDS011;7659;51.038;13.786;2023-06-05T01:16:10;2.95;;;2.00;;
15116;SDS011;7659;51.038;13.786;2023-06-05T01:18:37;8.23;;;2.45;;
15116;SDS011;7659;51.038;13.786;2023-06-05T01:21:10;4.65;;;2.20;;
15116;SDS011;7659;51.038;13.786;2023-06-05T01:23:37;11.07;;;2.22;;
15116;SDS011;7659;51.038;13.786;2023-06-05T01:26:03;5.25;;;1.95;;
15116;SDS011;7659;51.038;13.786;2023-06-05T01:28:31;4.05;;;1.77;;
15116;SDS011;7659;51.038;13.786;2023-06-05T01:31:01;2.88;;;2.08;;
15116;SDS011;7659;51.038;13.786;2023-06-05T01:33:32;3.95;;;1.98;;
15116;SDS011;7659;51.038;13.786;2023-06-05T01:36:11;3.28;;;2.05;;
15116;SDS011;7659;51.038;13.786;2023-06-05T01:38:38;4.30;;;2.42;;
15116;SDS011;7659;51.038;13.786;2023-06-05T01:41:04;4.88;;;2.25;;
15116;SDS011;7659;51.038;13.786;2023-06-05T01:43:31;5.30;;;1.95;;
15116;SDS011;7659;51.038;13.786;2023-06-05T01:45:57;4.80;;;2.08;;
15116;SDS011;7659;51.038;13.786;2023-06-05T01:48:24;5.47;;;2.15;;
15116;SDS011;7659;51.038;13.786;2023-06-05T01:50:59;5.25;;;2.15;;
15116;SDS011;7659;51.038;13.786;2023-06-05T01:53:25;6.75;;;2.58;;
15116;SDS011;7659;51.038;13.786;2023-06-05T01:55:51;3.85;;;2.08;;
15116;SDS011;7659;51.038;13.786;2023-06-05T01:58:23;3.40;;;1.90;;
15116;SDS011;7659;51.038;13.786;2023-06-05T02:00:48;3.33;;;1.90;;
15116;SDS011;7659;51.038;13.786;2023-06-05T02:03:15;3.15;;;2.10;;
15116;SDS011;7659;51.038;13.786;2023-06-05T02:05:41;5.38;;;2.30;;
15116;SDS011;7659;51.038;13.786;2023-06-05T02:08:07;3.88;;;2.28;;
15116;SDS011;7659;51.038;13.786;2023-06-05T02:10:37;4.03;;;2.20;;
15116;SDS011;7659;51.038;13.786;2023-06-05T02:13:09;3.60;;;1.95;;
15116;SDS011;7659;51.038;13.786;2023-06-05T02:15:35;5.72;;;2.15;;
15116;SDS011;7659;51.038;13.786;2023-06-05T02:18:01;4.28;;;2.28;;
15116;SDS011;7659;51.038;13.786;2023-06-05T02:20:30;4.72;;;2.28;;
15116;SDS011;7659;51.038;13.786;2023-06-05T02:22:56;3.58;;;2.50;;
15116;SDS011;7659;51.038;13.786;2023-06-05T02:25:22;3.88;;;2.20;;
15116;SDS011;7659;51.038;13.786;2023-06-05T02:27:51;4.10;;;2.20;;
15116;SDS011;7659;51.038;13.786;2023-06-05T02:30:17;3.63;;;2.00;;
15116;SDS011;7659;51.038;13.786;2023-06-05T02:32:42;5.00;;;1.98;;
15116;SDS011;7659;51.038;13.786;2023-06-05T02:35:11;4.28;;;2.17;;
15116;SDS011;7659;51.038;13.786;2023-06-05T02:37:38;7.40;;;2.47;;
15116;SDS011;7659;51.038;13.786;2023-06-05T02:40:09;4.28;;;2.40;;
15116;SDS011;7659;51.038;13.786;2023-06-05T02:42:36;2.75;;;1.90;;
15116;SDS011;7659;51.038;13.786;2023-06-05T02:45:02;7.18;;;2.10;;
15116;SDS011;7659;51.038;13.786;2023-06-05T02:47:30;4.32;;;2.00;;
15116;SDS011;7659;51.038;13.786;2023-06-05T02:49:56;5.43;;;2.30;;
15116;SDS011;7659;51.038;13.786;2023-06-05T02:52:22;3.83;;;2.47;;
15116;SDS011;7659;51.038;13.786;2023-06-05T02:54:47;3.15;;;2.30;;
15116;SDS011;7659;51.038;13.786;2023-06-05T02:57:13;3.50;;;2.17;;
15116;SDS011;7659;51.038;13.786;2023-06-05T02:59:41;6.32;;;2.47;;
15116;SDS011;7659;51.038;13.786;2023-06-05T03:02:12;6.72;;;2.22;;
15116;SDS011;7659;51.038;13.786;2023-06-05T03:04:40;5.38;;;2.30;;
15116;SDS011;7659;51.038;13.786;2023-06-05T03:07:06;4.63;;;2.35;;
15116;SDS011;7659;51.038;13.786;2023-06-05T03:09:34;3.97;;;2.35;;
15116;SDS011;7659;51.038;13.786;2023-06-05T03:11:59;4.45;;;2.67;;
15116;SDS011;7659;51.038;13.786;2023-06-05T03:14:27;3.38;;;2.17;;
15116;SDS011;7659;51.038;13.786;2023-06-05T03:16:53;5.60;;;2.03;;
15116;SDS011;7659;51.038;13.786;2023-06-05T03:19:20;4.82;;;2.15;;
15116;SDS011;7659;51.038;13.786;2023-06-05T03:21:46;5.72;;;2.38;;
15116;SDS011;7659;51.038;13.786;2023-06-05T03:24:13;11.35;;;2.33;;
15116;SDS011;7659;51.038;13.786;2023-06-05T03:26:40;5.57;;;2.50;;
15116;SDS011;7659;51.038;13.786;2023-06-05T03:29:07;4.50;;;2.03;;
15116;SDS011;7659;51.038;13.786;2023-06-05T03:31:33;5.38;;;2.00;;
15116;SDS011;7659;51.038;13.786;2023-06-05T03:33:59;3.63;;;2.00;;
15116;SDS011;7659;51.038;13.786;2023-06-05T03:36:25;3.72;;;2.33;;
15116;SDS011;7659;51.038;13.786;2023-06-05T03:38:54;6.22;;;2.13;;
15116;SDS011;7659;51.038;13.786;2023-06-05T03:41:20;4.32;;;2.15;;
15116;SDS011;7659;51.038;13.786;2023-06-05T03:43:47;4.43;;;2.28;;
15116;SDS011;7659;51.038;13.786;2023-06-05T03:46:15;4.75;;;2.13;;
15116;SDS011;7659;51.038;13.786;2023-06-05T03:48:44;6.70;;;2.47;;
15116;SDS011;7659;51.038;13.786;2023-06-05T03:51:11;3.90;;;2.08;;
15116;SDS011;7659;51.038;13.786;2023-06-05T03:53:38;4.00;;;2.10;;
15116;SDS011;7659;51.038;13.786;2023-06-05T03:56:05;5.60;;;2.30;;
15116;SDS011;7659;51.038;13.786;2023-06-05T03:58:36;5.18;;;2.15;;
15116;SDS011;7659;51.038;13.786;2023-06-05T04:01:02;7.72;;;2.20;;
15116;SDS011;7659;51.038;13.786;2023-06-05T04:03:28;3.83;;;2.35;;
15116;SDS011;7659;51.038;13.786;2023-06-05T04:05:55;3.13;;;2.33;;
15116;SDS011;7659;51.038;13.786;2023-06-05T04:08:20;3.67;;;2.28;;
15116;SDS011;7659;51.038;13.786;2023-06-05T04:10:46;3.88;;;2.00;;
15116;SDS011;7659;51.038;13.786;2023-06-05T04:13:11;4.97;;;2.50;;
15116;SDS011;7659;51.038;13.786;2023-06-05T04:15:38;3.45;;;2.28;;
15116;SDS011;7659;51.038;13.786;2023-06-05T04:18:04;8.57;;;2.63;;
15116;SDS011;7659;51.038;13.786;2023-06-05T04:20:30;3.63;;;2.13;;
15116;SDS011;7659;51.038;13.786;2023-06-05T04:22:56;6.13;;;2.42;;
15116;SDS011;7659;51.038;13.786;2023-06-05T04:25:22;3.75;;;2.67;;
15116;SDS011;7659;51.038;13.786;2023-06-05T04:27:48;3.92;;;2.03;;
15116;SDS011;7659;51.038;13.786;2023-06-05T04:30:15;5.35;;;2.45;;
15116;SDS011;7659;51.038;13.786;2023-06-05T04:32:42;5.03;;;2.25;;
15116;SDS011;7659;51.038;13.786;2023-06-05T04:35:10;3.33;;;2.13;;
15116;SDS011;7659;51.038;13.786;2023-06-05T04:37:37;6.57;;;2.60;;
15116;SDS011;7659;51.038;13.786;2023-06-05T04:40:04;4.63;;;2.25;;
15116;SDS011;7659;51.038;13.786;2023-06-05T04:42:38;7.50;;;2.60;;
15116;SDS011;7659;51.038;13.786;2023-06-05T04:45:05;6.95;;;2.20;;
15116;SDS011;7659;51.038;13.786;2023-06-05T04:47:34;8.30;;;2.95;;
15116;SDS011;7659;51.038;13.786;2023-06-05T04:50:00;8.32;;;2.42;;
15116;SDS011;7659;51.038;13.786;2023-06-05T04:52:26;5.57;;;2.17;;
15116;SDS011;7659;51.038;13.786;2023-06-05T04:54:52;4.93;;;2.40;;
15116;SDS011;7659;51.038;13.786;2023-06-05T04:57:18;3.95;;;2.20;;
15116;SDS011;7659;51.038;13.786;2023-06-05T04:59:44;6.28;;;2.40;;
15116;SDS011;7659;51.038;13.786;2023-06-05T05:02:12;8.15;;;2.80;;
15116;SDS011;7659;51.038;13.786;2023-06-05T05:04:41;9.13;;;2.95;;
15116;SDS011;7659;51.038;13.786;2023-06-05T05:07:07;8.90;;;3.25;;
15116;SDS011;7659;51.038;13.786;2023-06-05T05:09:32;7.35;;;2.85;;
15116;SDS011;7659;51.038;13.786;2023-06-05T05:11:59;9.93;;;3.10;;
15116;SDS011;7659;51.038;13.786;2023-06-05T05:14:25;5.40;;;2.58;;
15116;SDS011;7659;51.038;13.786;2023-06-05T05:16:52;9.13;;;2.70;;
15116;SDS011;7659;51.038;13.786;2023-06-05T05:19:18;6.97;;;3.00;;
15116;SDS011;7659;51.038;13.786;2023-06-05T05:21:44;6.70;;;3.25;;
15116;SDS011;7659;51.038;13.786;2023-06-05T05:24:10;4.22;;;2.40;;
15116;SDS011;7659;51.038;13.786;2023-06-05T05:26:36;6.28;;;2.90;;
15116;SDS011;7659;51.038;13.786;2023-06-05T05:29:01;13.00;;;3.50;;
15116;SDS011;7659;51.038;13.786;2023-06-05T05:31:27;6.32;;;2.83;;
15116;SDS011;7659;51.038;13.786;2023-06-05T05:33:54;12.30;;;3.38;;
15116;SDS011;7659;51.038;13.786;2023-06-05T05:36:20;7.35;;;3.08;;
15116;SDS011;7659;51.038;13.786;2023-06-05T05:38:46;4.35;;;2.78;;
15116;SDS011;7659;51.038;13.786;2023-06-05T05:41:11;16.40;;;2.90;;
15116;SDS011;7659;51.038;13.786;2023-06-05T05:43:37;8.63;;;3.30;;
15116;SDS011;7659;51.038;13.786;2023-06-05T05:46:02;7.57;;;3.10;;
15116;SDS011;7659;51.038;13.786;2023-06-05T05:48:28;12.38;;;3.53;;
15116;SDS011;7659;51.038;13.786;2023-06-05T05:50:55;9.07;;;3.30;;
15116;SDS011;7659;51.038;13.786;2023-06-05T05:53:21;13.88;;;3.40;;
15116;SDS011;7659;51.038;13.786;2023-06-05T05:55:46;11.85;;;3.60;;
15116;SDS011;7659;51.038;13.786;2023-06-05T05:58:12;18.77;;;3.58;;
15116;SDS011;7659;51.038;13.786;2023-06-05T06:00:37;9.43;;;3.13;;
15116;SDS011;7659;51.038;13.786;2023-06-05T06:03:03;14.82;;;3.15;;
15116;SDS011;7659;51.038;13.786;2023-06-05T06:05:29;10.30;;;2.72;;
15116;SDS011;7659;51.038;13.786;2023-06-05T06:07:55;7.53;;;2.97;;
15116;SDS011;7659;51.038;13.786;2023-06-05T06:10:21;14.55;;;3.00;;
15116;SDS011;7659;51.038;13.786;2023-06-05T06:12:46;8.00;;;2.95;;
15116;SDS011;7659;51.038;13.786;2023-06-05T06:15:12;9.43;;;2.78;;
15116;SDS011;7659;51.038;13.786;2023-06-05T06:17:37;9.68;;;2.90;;
15116;SDS011;7659;51.038;13.786;2023-06-05T06:20:05;10.70;;;2.88;;
15116;SDS011;7659;51.038;13.786;2023-06-05T06:22:31;7.85;;;2.70;;
15116;SDS011;7659;51.038;13.786;2023-06-05T06:24:57;6.95;;;2.78;;
15116;SDS011;7659;51.038;13.786;2023-06-05T06:27:22;9.38;;;3.05;;
15116;SDS011;7659;51.038;13.786;2023-06-05T06:29:49;10.45;;;2.78;;
15116;SDS011;7659;51.038;13.786;2023-06-05T06:32:16;10.77;;;2.90;;
15116;SDS011;7659;51.038;13.786;2023-06-05T06:34:41;7.30;;;2.75;;
15116;SDS011;7659;51.038;13.786;2023-06-05T06:37:10;10.52;;;2.88;;
15116;SDS011;7659;51.038;13.786;2023-06-05T06:39:36;11.27;;;2.97;;
15116;SDS011;7659;51.038;13.786;2023-06-05T06:42:02;9.23;;;2.88;;
15116;SDS011;7659;51.038;13.786;2023-06-05T06:44:31;9.27;;;2.80;;
15116;SDS011;7659;51.038;13.786;2023-06-05T06:46:57;14.43;;;3.00;;
15116;SDS011;7659;51.038;13.786;2023-06-05T06:49:22;10.05;;;3.08;;
15116;SDS011;7659;51.038;13.786;2023-06-05T06:51:48;14.35;;;2.83;;
15116;SDS011;7659;51.038;13.786;2023-06-05T06:54:13;9.85;;;2.80;;
15116;SDS011;7659;51.038;13.786;2023-06-05T06:56:39;5.47;;;2.58;;
15116;SDS011;7659;51.038;13.786;2023-06-05T06:59:13;10.02;;;2.92;;
15116;SDS011;7659;51.038;13.786;2023-06-05T07:01:43;4.60;;;2.38;;
15116;SDS011;7659;51.038;13.786;2023-06-05T07:04:11;11.38;;;2.92;;
15116;SDS011;7659;51.038;13.786;2023-06-05T07:06:37;6.35;;;2.90;;
15116;SDS011;7659;51.038;13.786;2023-06-05T07:09:03;9.82;;;2.72;;
15116;SDS011;7659;51.038;13.786;2023-06-05T07:11:29;5.07;;;2.40;;
15116;SDS011;7659;51.038;13.786;2023-06-05T07:13:55;9.32;;;2.70;;
15116;SDS011;7659;51.038;13.786;2023-06-05T07:16:20;5.32;;;2.65;;
15116;SDS011;7659;51.038;13.786;2023-06-05T07:18:46;10.95;;;2.63;;
15116;SDS011;7659;51.038;13.786;2023-06-05T07:21:11;11.07;;;2.83;;
15116;SDS011;7659;51.038;13.786;2023-06-05T07:23:37;5.32;;;2.70;;
15116;SDS011;7659;51.038;13.786;2023-06-05T07:26:04;5.75;;;2.78;;
15116;SDS011;7659;51.038;13.786;2023-06-05T07:28:29;7.47;;;2.40;;
15116;SDS011;7659;51.038;13.786;2023-06-05T07:30:55;8.93;;;2.67;;
15116;SDS011;7659;51.038;13.786;2023-06-05T07:33:21;11.32;;;3.25;;
15116;SDS011;7659;51.038;13.786;2023-06-05T07:35:46;7.78;;;2.50;;
15116;SDS011;7659;51.038;13.786;2023-06-05T07:38:14;9.57;;;2.40;;
15116;SDS011;7659;51.038;13.786;2023-06-05T07:40:39;12.88;;;3.33;;
15116;SDS011;7659;51.038;13.786;2023-06-05T07:43:05;5.30;;;2.72;;
15116;SDS011;7659;51.038;13.786;2023-06-05T07:45:31;11.68;;;3.08;;
15116;SDS011;7659;51.038;13.786;2023-06-05T07:47:57;9.95;;;2.78;;
15116;SDS011;7659;51.038;13.786;2023-06-05T07:50:22;15.93;;;3.13;;
15116;SDS011;7659;51.038;13.786;2023-06-05T07:52:47;6.50;;;2.50;;
15116;SDS011;7659;51.038;13.786;2023-06-05T07:55:13;7.97;;;2.67;;
15116;SDS011;7659;51.038;13.786;2023-06-05T07:57:38;11.70;;;3.22;;
15116;SDS011;7659;51.038;13.786;2023-06-05T08:00:04;14.88;;;3.03;;
15116;SDS011;7659;51.038;13.786;2023-06-05T08:02:55;19.88;;;2.88;;
15116;SDS011;7659;51.038;13.786;2023-06-05T08:05:22;12.00;;;2.67;;
15116;SDS011;7659;51.038;13.786;2023-06-05T08:07:48;16.23;;;2.42;;
15116;SDS011;7659;51.038;13.786;2023-06-05T08:10:13;15.18;;;3.13;;
15116;SDS011;7659;51.038;13.786;2023-06-05T08:12:40;13.18;;;3.03;;
15116;SDS011;7659;51.038;13.786;2023-06-05T08:15:06;8.95;;;2.97;;
15116;SDS011;7659;51.038;13.786;2023-06-05T08:17:32;29.95;;;4.97;;
15116;SDS011;7659;51.038;13.786;2023-06-05T08:19:57;22.95;;;3.60;;
15116;SDS011;7659;51.038;13.786;2023-06-05T08:22:23;24.40;;;3.40;;
15116;SDS011;7659;51.038;13.786;2023-06-05T08:24:48;9.98;;;2.97;;
15116;SDS011;7659;51.038;13.786;2023-06-05T08:27:15;9.63;;;2.40;;
15116;SDS011;7659;51.038;13.786;2023-06-05T08:29:41;8.88;;;2.60;;
15116;SDS011;7659;51.038;13.786;2023-06-05T08:32:06;7.43;;;2.45;;
15116;SDS011;7659;51.038;13.786;2023-06-05T08:34:32;11.10;;;2.53;;
15116;SDS011;7659;51.038;13.786;2023-06-05T08:36:57;6.18;;;2.80;;
15116;SDS011;7659;51.038;13.786;2023-06-05T08:39:24;13.63;;;2.80;;
15116;SDS011;7659;51.038;13.786;2023-06-05T08:41:52;7.82;;;2.35;;
15116;SDS011;7659;51.038;13.786;2023-06-05T08:44:20;10.32;;;2.60;;
15116;SDS011;7659;51.038;13.786;2023-06-05T08:46:45;6.70;;;2.15;;
15116;SDS011;7659;51.038;13.786;2023-06-05T08:49:12;20.30;;;2.75;;
15116;SDS011;7659;51.038;13.786;2023-06-05T08:51:40;9.68;;;2.70;;
15116;SDS011;7659;51.038;13.786;2023-06-05T08:54:06;4.90;;;2.58;;
15116;SDS011;7659;51.038;13.786;2023-06-05T08:56:37;6.70;;;2.33;;
15116;SDS011;7659;51.038;13.786;2023-06-05T08:59:04;4.15;;;2.75;;
15116;SDS011;7659;51.038;13.786;2023-06-05T09:01:30;7.40;;;2.50;;
15116;SDS011;7659;51.038;13.786;2023-06-05T09:03:57;11.05;;;2.80;;
15116;SDS011;7659;51.038;13.786;2023-06-05T09:06:23;7.10;;;2.72;;
15116;SDS011;7659;51.038;13.786;2023-06-05T09:08:48;11.73;;;2.83;;
15116;SDS011;7659;51.038;13.786;2023-06-05T09:13:49;5.63;;;2.40;;
15116;SDS011;7659;51.038;13.786;2023-06-05T09:16:15;5.90;;;2.63;;
15116;SDS011;7659;51.038;13.786;2023-06-05T09:18:57;8.05;;;2.95;;
15116;SDS011;7659;51.038;13.786;2023-06-05T09:21:24;7.95;;;2.70;;
15116;SDS011;7659;51.038;13.786;2023-06-05T09:24:10;8.27;;;2.58;;
15116;SDS011;7659;51.038;13.786;2023-06-05T09:29:33;12.43;;;3.25;;
15116;SDS011;7659;51.038;13.786;2023-06-05T09:32:00;5.25;;;3.13;;
15116;SDS011;7659;51.038;13.786;2023-06-05T09:34:26;5.22;;;2.40;;
15116;SDS011;7659;51.038;13.786;2023-06-05T09:36:52;5.65;;;2.60;;
15116;SDS011;7659;51.038;13.786;2023-06-05T09:39:20;7.43;;;2.75;;
15116;SDS011;7659;51.038;13.786;2023-06-05T09:41:47;6.18;;;3.10;;
15116;SDS011;7659;51.038;13.786;2023-06-05T09:44:14;8.00;;;2.70;;
15116;SDS011;7659;51.038;13.786;2023-06-05T09:46:58;4.18;;;2.40;;
15116;SDS011;7659;51.038;13.786;2023-06-05T09:49:25;4.43;;;2.80;;
15116;SDS011;7659;51.038;13.786;2023-06-05T09:51:51;6.70;;;2.53;;
15116;SDS011;7659;51.038;13.786;2023-06-05T09:54:16;6.25;;;2.55;;
15116;SDS011;7659;51.038;13.786;2023-06-05T09:56:48;8.23;;;3.08;;
15116;SDS011;7659;51.038;13.786;2023-06-05T09:59:17;10.65;;;3.42;;
15116;SDS011;7659;51.038;13.786;2023-06-05T10:01:43;4.68;;;2.40;;
15116;SDS011;7659;51.038;13.786;2023-06-05T10:04:10;5.28;;;2.60;;
15116;SDS011;7659;51.038;13.786;2023-06-05T10:06:36;6.68;;;2.70;;
15116;SDS011;7659;51.038;13.786;2023-06-05T10:09:02;6.55;;;2.38;;
15116;SDS011;7659;51.038;13.786;2023-06-05T10:11:28;5.18;;;2.70;;
15116;SDS011;7659;51.038;13.786;2023-06-05T10:13:54;4.53;;;2.20;;
15116;SDS011;7659;51.038;13.786;2023-06-05T10:16:20;5.13;;;2.38;;
15116;SDS011;7659;51.038;13.786;2023-06-05T10:18:46;6.97;;;2.63;;
15116;SDS011;7659;51.038;13.786;2023-06-05T10:21:14;3.70;;;2.33;;
15116;SDS011;7659;51.038;13.786;2023-06-05T10:23:39;5.60;;;2.95;;
15116;SDS011;7659;51.038;13.786;2023-06-05T10:26:06;7.57;;;2.80;;
15116;SDS011;7659;51.038;13.786;2023-06-05T10:33:51;9.48;;;3.42;;
15116;SDS011;7659;51.038;13.786;2023-06-05T10:38:50;8.40;;;2.80;;
15116;SDS011;7659;51.038;13.786;2023-06-05T10:41:17;5.55;;;2.20;;
15116;SDS011;7659;51.038;13.786;2023-06-05T10:43:47;3.33;;;2.10;;
15116;SDS011;7659;51.038;13.786;2023-06-05T10:49:09;7.95;;;2.40;;
15116;SDS011;7659;51.038;13.786;2023-06-05T10:51:38;5.28;;;2.17;;
15116;SDS011;7659;51.038;13.786;2023-06-05T10:54:07;3.97;;;2.35;;
15116;SDS011;7659;51.038;13.786;2023-06-05T10:59:21;3.70;;;2.10;;
15116;SDS011;7659;51.038;13.786;2023-06-05T11:05:16;4.25;;;2.17;;
15116;SDS011;7659;51.038;13.786;2023-06-05T11:07:23;6.30;;;2.13;;
15116;SDS011;7659;51.038;13.786;2023-06-05T11:15:01;10.85;;;2.30;;
15116;SDS011;7659;51.038;13.786;2023-06-05T11:17:34;4.13;;;2.30;;
15116;SDS011;7659;51.038;13.786;2023-06-05T11:20:00;8.40;;;2.60;;
15116;SDS011;7659;51.038;13.786;2023-06-05T11:22:26;4.80;;;2.25;;
15116;SDS011;7659;51.038;13.786;2023-06-05T11:30:11;3.33;;;2.17;;
15116;SDS011;7659;51.038;13.786;2023-06-05T11:32:36;4.13;;;2.33;;
15116;SDS011;7659;51.038;13.786;2023-06-05T11:35:02;5.72;;;2.40;;
15116;SDS011;7659;51.038;13.786;2023-06-05T11:37:28;5.68;;;2.25;;
15116;SDS011;7659;51.038;13.786;2023-06-05T11:39:53;3.80;;;2.13;;
15116;SDS011;7659;51.038;13.786;2023-06-05T11:42:22;8.25;;;2.50;;
15116;SDS011;7659;51.038;13.786;2023-06-05T11:44:48;7.78;;;2.33;;
15116;SDS011;7659;51.038;13.786;2023-06-05T11:47:23;9.48;;;2.10;;
15116;SDS011;7659;51.038;13.786;2023-06-05T11:49:48;11.60;;;3.80;;
15116;SDS011;7659;51.038;13.786;2023-06-05T11:52:17;3.42;;;2.28;;
15116;SDS011;7659;51.038;13.786;2023-06-05T11:54:43;17.98;;;2.53;;
15116;SDS011;7659;51.038;13.786;2023-06-05T11:59:44;7.00;;;2.20;;
15116;SDS011;7659;51.038;13.786;2023-06-05T12:02:10;5.35;;;1.90;;
15116;SDS011;7659;51.038;13.786;2023-06-05T12:04:38;2.50;;;1.95;;
15116;SDS011;7659;51.038;13.786;2023-06-05T12:07:05;6.45;;;2.40;;
15116;SDS011;7659;51.038;13.786;2023-06-05T12:09:30;8.90;;;3.55;;
15116;SDS011;7659;51.038;13.786;2023-06-05T12:12:06;5.53;;;2.00;;
15116;SDS011;7659;51.038;13.786;2023-06-05T12:14:34;6.55;;;2.15;;
15116;SDS011;7659;51.038;13.786;2023-06-05T12:17:00;5.00;;;1.98;;
15116;SDS011;7659;51.038;13.786;2023-06-05T12:19:25;6.22;;;2.60;;
15116;SDS011;7659;51.038;13.786;2023-06-05T12:21:51;10.05;;;2.22;;
15116;SDS011;7659;51.038;13.786;2023-06-05T12:24:26;6.68;;;2.25;;
15116;SDS011;7659;51.038;13.786;2023-06-05T12:26:56;7.25;;;2.28;;
15116;SDS011;7659;51.038;13.786;2023-06-05T12:29:24;3.72;;;2.15;;
15116;SDS011;7659;51.038;13.786;2023-06-05T12:31:50;5.60;;;2.20;;
15116;SDS011;7659;51.038;13.786;2023-06-05T12:34:16;5.65;;;2.10;;
15116;SDS011;7659;51.038;13.786;2023-06-05T12:36:42;4.30;;;2.30;;
15116;SDS011;7659;51.038;13.786;2023-06-05T12:39:14;4.75;;;2.17;;
15116;SDS011;7659;51.038;13.786;2023-06-05T12:41:41;9.02;;;2.25;;
15116;SDS011;7659;51.038;13.786;2023-06-05T12:44:07;4.72;;;1.92;;
15116;SDS011;7659;51.038;13.786;2023-06-05T12:46:35;8.52;;;2.58;;
15116;SDS011;7659;51.038;13.786;2023-06-05T12:49:02;3.20;;;2.08;;
15116;SDS011;7659;51.038;13.786;2023-06-05T12:51:28;4.55;;;2.33;;
15116;SDS011;7659;51.038;13.786;2023-06-05T12:53:54;4.88;;;2.22;;
15116;SDS011;7659;51.038;13.786;2023-06-05T12:56:21;8.30;;;2.33;;
15116;SDS011;7659;51.038;13.786;2023-06-05T12:58:50;7.68;;;2.35;;
15116;SDS011;7659;51.038;13.786;2023-06-05T13:01:16;4.93;;;2.25;;
15116;SDS011;7659;51.038;13.786;2023-06-05T13:03:41;4.78;;;2.08;;
15116;SDS011;7659;51.038;13.786;2023-06-05T13:06:08;5.60;;;2.33;;
15116;SDS011;7659;51.038;13.786;2023-06-05T13:08:33;8.93;;;2.30;;
15116;SDS011;7659;51.038;13.786;2023-06-05T13:10:59;10.43;;;2.75;;
15116;SDS011;7659;51.038;13.786;2023-06-05T13:13:24;8.75;;;2.53;;
15116;SDS011;7659;51.038;13.786;2023-06-05T13:15:50;9.52;;;2.33;;
15116;SDS011;7659;51.038;13.786;2023-06-05T13:18:15;6.22;;;2.42;;
15116;SDS011;7659;51.038;13.786;2023-06-05T13:20:41;6.47;;;2.25;;
15116;SDS011;7659;51.038;13.786;2023-06-05T13:23:06;6.18;;;2.15;;
15116;SDS011;7659;51.038;13.786;2023-06-05T13:25:33;6.03;;;2.30;;
15116;SDS011;7659;51.038;13.786;2023-06-05T13:27:58;10.48;;;2.28;;
15116;SDS011;7659;51.038;13.786;2023-06-05T13:30:24;3.40;;;1.77;;
15116;SDS011;7659;51.038;13.786;2023-06-05T13:32:50;7.43;;;2.30;;
15116;SDS011;7659;51.038;13.786;2023-06-05T13:35:15;5.25;;;1.65;;
15116;SDS011;7659;51.038;13.786;2023-06-05T13:37:41;3.30;;;1.60;;
15116;SDS011;7659;51.038;13.786;2023-06-05T13:40:06;3.97;;;1.70;;
15116;SDS011;7659;51.038;13.786;2023-06-05T13:42:35;32.67;;;2.80;;
15116;SDS011;7659;51.038;13.786;2023-06-05T13:45:00;3.28;;;1.80;;
15116;SDS011;7659;51.038;13.786;2023-06-05T13:47:26;11.30;;;2.08;;
15116;SDS011;7659;51.038;13.786;2023-06-05T13:49:51;2.97;;;1.98;;
15116;SDS011;7659;51.038;13.786;2023-06-05T13:52:18;4.63;;;1.92;;
15116;SDS011;7659;51.038;13.786;2023-06-05T13:54:44;7.15;;;2.20;;
15116;SDS011;7659;51.038;13.786;2023-06-05T13:57:09;3.85;;;2.08;;
15116;SDS011;7659;51.038;13.786;2023-06-05T13:59:36;9.88;;;2.10;;
15116;SDS011;7659;51.038;13.786;2023-06-05T14:02:01;5.50;;;2.15;;
15116;SDS011;7659;51.038;13.786;2023-06-05T14:04:27;4.72;;;2.10;;
15116;SDS011;7659;51.038;13.786;2023-06-05T14:06:54;3.75;;;1.77;;
15116;SDS011;7659;51.038;13.786;2023-06-05T14:09:20;4.93;;;1.95;;
15116;SDS011;7659;51.038;13.786;2023-06-05T14:11:45;9.40;;;2.45;;
15116;SDS011;7659;51.038;13.786;2023-06-05T14:14:11;4.95;;;2.00;;
15116;SDS011;7659;51.038;13.786;2023-06-05T14:16:36;3.17;;;2.00;;
15116;SDS011;7659;51.038;13.786;2023-06-05T14:19:02;4.88;;;2.10;;
15116;SDS011;7659;51.038;13.786;2023-06-05T14:21:28;2.42;;;2.00;;
15116;SDS011;7659;51.038;13.786;2023-06-05T14:23:53;2.75;;;2.33;;
15116;SDS011;7659;51.038;13.786;2023-06-05T14:26:19;14.20;;;2.47;;
15116;SDS011;7659;51.038;13.786;2023-06-05T14:28:47;8.35;;;2.45;;
15116;SDS011;7659;51.038;13.786;2023-06-05T14:31:12;8.65;;;2.17;;
15116;SDS011;7659;51.038;13.786;2023-06-05T14:33:38;5.35;;;2.13;;
15116;SDS011;7659;51.038;13.786;2023-06-05T14:36:04;4.32;;;2.05;;
15116;SDS011;7659;51.038;13.786;2023-06-05T14:38:30;6.72;;;2.22;;
15116;SDS011;7659;51.038;13.786;2023-06-05T14:40:55;7.43;;;2.70;;
15116;SDS011;7659;51.038;13.786;2023-06-05T14:43:23;6.55;;;2.22;;
15116;SDS011;7659;51.038;13.786;2023-06-05T14:45:48;3.33;;;2.40;;
15116;SDS011;7659;51.038;13.786;2023-06-05T14:48:14;13.48;;;2.58;;
15116;SDS011;7659;51.038;13.786;2023-06-05T14:50:39;5.88;;;2.10;;
15116;SDS011;7659;51.038;13.786;2023-06-05T14:53:05;6.82;;;2.40;;
15116;SDS011;7659;51.038;13.786;2023-06-05T14:55:30;6.53;;;2.50;;
15116;SDS011;7659;51.038;13.786;2023-06-05T14:57:56;4.18;;;2.42;;
15116;SDS011;7659;51.038;13.786;2023-06-05T15:00:21;6.22;;;2.45;;
15116;SDS011;7659;51.038;13.786;2023-06-05T15:02:47;4.70;;;2.30;;
15116;SDS011;7659;51.038;13.786;2023-06-05T15:05:12;4.00;;;2.40;;
15116;SDS011;7659;51.038;13.786;2023-06-05T15:07:40;9.13;;;2.85;;
15116;SDS011;7659;51.038;13.786;2023-06-05T15:10:06;8.38;;;2.75;;
15116;SDS011;7659;51.038;13.786;2023-06-05T15:12:33;4.32;;;2.10;;
15116;SDS011;7659;51.038;13.786;2023-06-05T15:14:58;11.27;;;2.78;;
15116;SDS011;7659;51.038;13.786;2023-06-05T15:17:24;10.82;;;2.55;;
15116;SDS011;7659;51.038;13.786;2023-06-05T15:19:49;7.18;;;2.65;;